Time;durP1;ratioP1;P1;durP2;ratioP2;P2;SDS_P1;SDS_P2;PMS_P1;PMS_P2;Temp;Humidity;BMP_temperature;BMP_pressure;BME280_temperature;BME280_humidity;BME280_pressure;Samples;Min_cycle;Max_cycle;Signal;HPM_P1;HPM_P2
2023/06/27 00:02:26;;;;;;;28.23;6.15;;;;;;;;;;6269755;22;20062;-61
2023/06/27 00:05:14;;;;;;;27.60;6.70;;;;;;;;;;6269210;22;20063;-61
2023/06/27 00:08:14;;;;;;;17.95;5.45;;;;;;;;;;6267778;22;20543;-61
2023/06/27 00:11:02;;;;;;;25.40;6.45;;;;;;;;;;6270154;22;20029;-61
2023/06/27 00:13:58;;;;;;;22.30;6.13;;;;;;;;;;6270881;22;20077;-61
2023/06/27 00:16:51;;;;;;;21.90;6.75;;;;;;;;;;6266528;22;20081;-61
2023/06/27 00:19:46;;;;;;;26.05;6.60;;;;;;;;;;6271074;22;20023;-61
2023/06/27 00:22:33;;;;;;;30.77;7.45;;;;;;;;;;6265382;22;20085;-61
2023/06/27 00:25:27;;;;;;;34.85;7.13;;;;;;;;;;6269965;22;20027;-62
2023/06/27 00:28:14;;;;;;;24.88;6.60;;;;;;;;;;6264147;22;20019;-61
2023/06/27 00:31:08;;;;;;;27.52;6.78;;;;;;;;;;6269550;22;20077;-61
2023/06/27 00:34:02;;;;;;;25.15;7.68;;;;;;;;;;6269627;22;20024;-61
2023/06/27 00:36:56;;;;;;;22.80;7.03;;;;;;;;;;6268744;22;20481;-61
2023/06/27 00:39:43;;;;;;;25.77;7.53;;;;;;;;;;6270153;22;20024;-61
2023/06/27 00:42:37;;;;;;;28.95;7.45;;;;;;;;;;6271293;22;20031;-61
2023/06/27 00:45:24;;;;;;;26.73;7.50;;;;;;;;;;6269501;22;20024;-60
2023/06/27 00:48:18;;;;;;;29.02;6.78;;;;;;;;;;6268492;22;20031;-61
2023/06/27 00:51:06;;;;;;;29.88;6.90;;;;;;;;;;6269036;22;20086;-61
2023/06/27 00:54:00;;;;;;;18.73;6.38;;;;;;;;;;6269665;22;20531;-62
2023/06/27 00:56:49;;;;;;;23.33;7.25;;;;;;;;;;6270170;22;20059;-61
2023/06/27 00:59:44;;;;;;;27.50;6.55;;;;;;;;;;6270063;22;20023;-61
2023/06/27 01:02:30;;;;;;;33.45;7.45;;;;;;;;;;6270397;22;20024;-62
2023/06/27 01:05:25;;;;;;;32.50;7.72;;;;;;;;;;6268546;22;20773;-61
2023/06/27 01:08:12;;;;;;;25.13;6.85;;;;;;;;;;6268224;22;20027;-62
2023/06/27 01:11:14;;;;;;;21.25;6.97;;;;;;;;;;6269277;22;20338;-61
2023/06/27 01:14:03;;;;;;;28.35;7.13;;;;;;;;;;6269094;22;20036;-61
2023/06/27 01:17:02;;;;;;;22.70;7.70;;;;;;;;;;6268422;22;20028;-61
2023/06/27 01:19:52;;;;;;;23.33;7.53;;;;;;;;;;6270213;22;20020;-60
2023/06/27 01:22:47;;;;;;;20.45;7.57;;;;;;;;;;6269592;22;20024;-61
2023/06/27 01:25:37;;;;;;;25.17;7.32;;;;;;;;;;6269413;22;20127;-61
2023/06/27 01:28:28;;;;;;;26.77;8.13;;;;;;;;;;6269732;22;20028;-61
2023/06/27 01:31:19;;;;;;;25.58;7.43;;;;;;;;;;6269940;22;20020;-61
2023/06/27 01:34:26;;;;;;;32.00;8.20;;;;;;;;;;6269613;22;20020;-61
2023/06/27 01:37:18;;;;;;;28.88;8.65;;;;;;;;;;6267357;22;20031;-61
2023/06/27 01:40:13;;;;;;;19.73;7.38;;;;;;;;;;6268945;22;20460;-62
2023/06/27 01:43:02;;;;;;;24.45;7.25;;;;;;;;;;6268144;22;20020;-61
2023/06/27 01:45:57;;;;;;;28.05;8.23;;;;;;;;;;6268764;22;20023;-61
2023/06/27 01:48:45;;;;;;;23.55;8.27;;;;;;;;;;6269246;22;20578;-61
2023/06/27 01:51:39;;;;;;;26.77;9.63;;;;;;;;;;6261624;22;20028;-61
2023/06/27 01:54:27;;;;;;;25.48;8.63;;;;;;;;;;6269538;22;20035;-61
2023/06/27 01:57:21;;;;;;;20.60;8.00;;;;;;;;;;6269143;22;20031;-61
2023/06/27 02:00:10;;;;;;;26.35;9.43;;;;;;;;;;6266937;22;20019;-60
2023/06/27 02:03:02;;;;;;;27.33;9.02;;;;;;;;;;6269455;22;20069;-60
2023/06/27 02:05:49;;;;;;;26.58;8.80;;;;;;;;;;6268974;22;20055;-61
2023/06/27 02:08:43;;;;;;;21.52;9.57;;;;;;;;;;6269176;22;20027;-61
2023/06/27 02:11:31;;;;;;;29.23;8.95;;;;;;;;;;6268013;22;20137;-61
2023/06/27 02:14:25;;;;;;;26.52;9.02;;;;;;;;;;6266760;22;20023;-61
2023/06/27 02:17:18;;;;;;;24.15;9.55;;;;;;;;;;6269105;22;20024;-61
2023/06/27 02:20:12;;;;;;;33.13;9.77;;;;;;;;;;6268780;22;20361;-62
2023/06/27 02:22:59;;;;;;;23.33;9.18;;;;;;;;;;6267912;22;20024;-60
2023/06/27 02:25:53;;;;;;;33.83;9.38;;;;;;;;;;6268202;22;20020;-61
2023/06/27 02:28:40;;;;;;;20.48;5.97;;;;;;;;;;6268739;22;20152;-61
2023/06/27 02:31:34;;;;;;;39.45;9.10;;;;;;;;;;6269376;22;20065;-61
2023/06/27 02:34:21;;;;;;;23.42;8.40;;;;;;;;;;6268350;22;20020;-61
2023/06/27 02:37:15;;;;;;;17.00;5.88;;;;;;;;;;6267698;22;20020;-62
2023/06/27 02:40:02;;;;;;;27.10;8.60;;;;;;;;;;6268167;22;20020;-61
2023/06/27 02:42:56;;;;;;;21.73;6.88;;;;;;;;;;6269128;22;20086;-61
2023/06/27 02:45:43;;;;;;;30.17;8.10;;;;;;;;;;6268984;22;20024;-61
2023/06/27 02:48:37;;;;;;;24.83;8.05;;;;;;;;;;6267426;22;20445;-61
2023/06/27 02:51:24;;;;;;;24.00;7.63;;;;;;;;;;6268599;22;20085;-61
2023/06/27 02:54:18;;;;;;;26.17;7.88;;;;;;;;;;6268619;22;20023;-61
2023/06/27 02:57:05;;;;;;;29.92;9.02;;;;;;;;;;6267094;22;20469;-61
2023/06/27 02:59:59;;;;;;;29.48;7.97;;;;;;;;;;6268678;22;20077;-61
2023/06/27 03:02:53;;;;;;;29.40;7.72;;;;;;;;;;6269064;22;20027;-62
2023/06/27 03:05:47;;;;;;;24.77;7.90;;;;;;;;;;6268418;22;20020;-61
2023/06/27 03:08:35;;;;;;;28.55;8.52;;;;;;;;;;6268743;22;20399;-61
2023/06/27 03:11:29;;;;;;;37.28;8.63;;;;;;;;;;6269667;22;20023;-61
2023/06/27 03:14:18;;;;;;;33.75;8.57;;;;;;;;;;6267275;22;20028;-61
2023/06/27 03:17:17;;;;;;;36.67;8.32;;;;;;;;;;6265661;22;20035;-61
2023/06/27 03:20:13;;;;;;;21.05;6.45;;;;;;;;;;6268072;22;20066;-61
2023/06/27 03:23:06;;;;;;;;;;;;;;;;;;6268121;22;20020;-61
2023/06/27 03:25:53;;;;;;;32.47;7.78;;;;;;;;;;6268336;22;19915;-61
2023/06/27 03:28:47;;;;;;;24.13;7.72;;;;;;;;;;6268329;22;20077;-61
2023/06/27 03:31:34;;;;;;;37.85;9.60;;;;;;;;;;6268846;22;20074;-61
2023/06/27 03:34:28;;;;;;;29.02;7.72;;;;;;;;;;6266639;22;20099;-61
2023/06/27 03:37:15;;;;;;;39.60;9.60;;;;;;;;;;6267541;22;20024;-61
2023/06/27 03:40:09;;;;;;;36.53;10.20;;;;;;;;;;6268711;22;20380;-63
2023/06/27 03:42:57;;;;;;;32.42;9.15;;;;;;;;;;6269218;22;20024;-61
2023/06/27 03:45:50;;;;;;;21.10;6.53;;;;;;;;;;6268482;22;20081;-60
2023/06/27 03:48:37;;;;;;;30.13;7.97;;;;;;;;;;6269646;22;20016;-61
2023/06/27 03:51:32;;;;;;;30.77;8.18;;;;;;;;;;6266870;22;20453;-61
2023/06/27 03:54:19;;;;;;;34.88;9.70;;;;;;;;;;6268395;22;20016;-61
2023/06/27 03:57:13;;;;;;;39.10;8.77;;;;;;;;;;6265268;22;20074;-61
2023/06/27 04:00:00;;;;;;;40.22;10.23;;;;;;;;;;6268508;22;20023;-62
2023/06/27 04:02:54;;;;;;;28.40;9.02;;;;;;;;;;6267298;22;20461;-61
2023/06/27 04:05:41;;;;;;;29.98;9.65;;;;;;;;;;6269606;22;20094;-61
2023/06/27 04:08:35;;;;;;;44.83;9.95;;;;;;;;;;6269020;22;20024;-62
2023/06/27 04:11:29;;;;;;;38.85;9.13;;;;;;;;;;6270977;22;20062;-61
2023/06/27 04:14:17;;;;;;;38.85;10.38;;;;;;;;;;6270968;22;20365;-61
2023/06/27 04:17:17;;;;;;;41.40;8.90;;;;;;;;;;6267959;22;20024;-61
2023/06/27 04:20:05;;;;;;;43.25;9.93;;;;;;;;;;6269037;22;20066;-62
2023/06/27 04:22:58;;;;;;;42.75;10.18;;;;;;;;;;6270566;22;20019;-61
2023/06/27 04:25:59;;;;;;;39.80;7.70;;;;;;;;;;6268046;22;20020;-63
2023/06/27 04:28:53;;;;;;;43.67;9.13;;;;;;;;;;6270181;22;20472;-61
2023/06/27 04:31:40;;;;;;;40.47;9.45;;;;;;;;;;6268821;22;20019;-61
2023/06/27 04:34:36;;;;;;;45.08;9.07;;;;;;;;;;6268329;22;20058;-61
2023/06/27 04:37:23;;;;;;;31.48;8.43;;;;;;;;;;6266173;22;20058;-62
2023/06/27 04:40:15;;;;;;;36.42;8.10;;;;;;;;;;6267787;22;20019;-62
2023/06/27 04:43:02;;;;;;;33.17;8.15;;;;;;;;;;6267434;22;20028;-62
2023/06/27 04:45:56;;;;;;;42.17;8.43;;;;;;;;;;6268581;22;20023;-61
2023/06/27 04:48:43;;;;;;;33.33;7.78;;;;;;;;;;6267613;22;20027;-62
2023/06/27 04:51:37;;;;;;;39.15;7.28;;;;;;;;;;6269379;22;20024;-61
2023/06/27 04:54:24;;;;;;;41.00;8.82;;;;;;;;;;6270597;22;20020;-61
2023/06/27 04:57:18;;;;;;;27.73;7.30;;;;;;;;;;6268924;22;20070;-61
2023/06/27 05:00:06;;;;;;;40.78;8.23;;;;;;;;;;6267880;22;20027;-61
2023/06/27 05:02:59;;;;;;;32.28;8.27;;;;;;;;;;6269938;22;20019;-61
2023/06/27 05:05:46;;;;;;;23.25;8.15;;;;;;;;;;6269686;22;20098;-61
2023/06/27 05:08:40;;;;;;;25.15;7.25;;;;;;;;;;6270530;22;20069;-62
2023/06/27 05:11:27;;;;;;;31.63;7.78;;;;;;;;;;6270496;22;20031;-61
2023/06/27 05:14:21;;;;;;;27.05;6.95;;;;;;;;;;6268547;22;20464;-62
2023/06/27 05:17:14;;;;;;;30.88;8.15;;;;;;;;;;6268944;22;20031;-61
2023/06/27 05:20:08;;;;;;;22.98;6.47;;;;;;;;;;6269996;22;20023;-63
2023/06/27 05:22:55;;;;;;;33.88;6.35;;;;;;;;;;6269067;22;20016;-62
2023/06/27 05:25:49;;;;;;;27.42;6.68;;;;;;;;;;6270104;22;20495;-61
2023/06/27 05:28:36;;;;;;;26.25;6.93;;;;;;;;;;6269379;22;20085;-62
2023/06/27 05:31:30;;;;;;;22.55;5.75;;;;;;;;;;6269758;22;20016;-61
2023/06/27 05:34:17;;;;;;;18.02;5.15;;;;;;;;;;6267310;22;20085;-61
2023/06/27 05:37:13;;;;;;;25.38;5.80;;;;;;;;;;6270381;22;20086;-61
2023/06/27 05:40:06;;;;;;;33.20;5.88;;;;;;;;;;6268697;22;20534;-62
2023/06/27 05:42:53;;;;;;;18.80;5.85;;;;;;;;;;6270195;22;20069;-61
2023/06/27 05:45:47;;;;;;;21.48;5.22;;;;;;;;;;6270288;22;20484;-61
2023/06/27 05:48:34;;;;;;;20.17;4.88;;;;;;;;;;6269510;22;20027;-61
2023/06/27 05:51:28;;;;;;;27.70;4.93;;;;;;;;;;6270821;22;20089;-61
2023/06/27 05:54:15;;;;;;;18.42;4.55;;;;;;;;;;6269273;22;20073;-62
2023/06/27 05:57:09;;;;;;;16.02;4.60;;;;;;;;;;6267532;22;20023;-61
2023/06/27 05:59:56;;;;;;;25.60;5.28;;;;;;;;;;6270896;22;20028;-62
2023/06/27 06:02:50;;;;;;;20.30;4.68;;;;;;;;;;6270212;22;20023;-61
2023/06/27 06:05:37;;;;;;;26.73;5.18;;;;;;;;;;6269308;22;20028;-61
2023/06/27 06:08:31;;;;;;;13.45;3.63;;;;;;;;;;6270448;22;20177;-61
2023/06/27 06:11:18;;;;;;;17.35;4.25;;;;;;;;;;6268574;22;20028;-61
2023/06/27 06:14:12;;;;;;;18.02;4.35;;;;;;;;;;6269862;22;20024;-60
2023/06/27 06:17:06;;;;;;;21.00;4.60;;;;;;;;;;6268748;22;20024;-60
2023/06/27 06:20:00;;;;;;;16.92;4.38;;;;;;;;;;6269475;22;20023;-60
2023/06/27 06:22:47;;;;;;;14.05;4.15;;;;;;;;;;6270520;22;20020;-60
2023/06/27 06:25:41;;;;;;;20.92;4.72;;;;;;;;;;6268768;22;20358;-60
2023/06/27 06:28:28;;;;;;;15.15;3.67;;;;;;;;;;6268135;22;20388;-59
2023/06/27 06:31:24;;;;;;;19.13;4.30;;;;;;;;;;6269380;22;20023;-61
2023/06/27 06:34:16;;;;;;;19.17;4.38;;;;;;;;;;6269405;22;20409;-60
2023/06/27 06:37:10;;;;;;;18.42;3.70;;;;;;;;;;6268999;22;20027;-60
2023/06/27 06:39:57;;;;;;;24.55;4.97;;;;;;;;;;6268995;22;20039;-60
2023/06/27 06:42:51;;;;;;;14.05;4.00;;;;;;;;;;6269366;22;20369;-60
2023/06/27 06:45:38;;;;;;;13.45;3.75;;;;;;;;;;6268440;22;20023;-60
2023/06/27 06:48:32;;;;;;;15.18;3.40;;;;;;;;;;6269108;22;20020;-60
2023/06/27 06:51:19;;;;;;;12.00;3.63;;;;;;;;;;6269171;22;20059;-60
2023/06/27 06:54:13;;;;;;;13.52;3.55;;;;;;;;;;6268400;22;20024;-60
2023/06/27 06:57:08;;;;;;;10.30;3.05;;;;;;;;;;6269304;22;20407;-59
2023/06/27 07:00:03;;;;;;;11.82;3.15;;;;;;;;;;6269144;22;20285;-60
2023/06/27 07:02:48;;;;;;;7.78;2.97;;;;;;;;;;6266947;22;20026;-59
2023/06/27 07:05:42;;;;;;;9.90;2.85;;;;;;;;;;6270088;22;20074;-59
2023/06/27 07:08:29;;;;;;;6.38;2.63;;;;;;;;;;6268206;22;20024;-60
2023/06/27 07:11:23;;;;;;;9.52;2.40;;;;;;;;;;6267565;22;20027;-60
2023/06/27 07:14:12;;;;;;;7.90;2.50;;;;;;;;;;6268986;22;20027;-59
2023/06/27 07:17:10;;;;;;;8.07;2.83;;;;;;;;;;6267700;22;20027;-59
2023/06/27 07:20:04;;;;;;;9.20;2.53;;;;;;;;;;6269377;22;20348;-60
2023/06/27 07:22:58;;;;;;;7.88;2.35;;;;;;;;;;6264495;22;20066;-59
2023/06/27 07:25:45;;;;;;;10.80;2.28;;;;;;;;;;6268974;22;20019;-59
2023/06/27 07:28:39;;;;;;;6.55;2.70;;;;;;;;;;6268302;22;20020;-59
2023/06/27 07:31:26;;;;;;;9.50;2.25;;;;;;;;;;6268678;22;20020;-59
2023/06/27 07:34:20;;;;;;;6.28;2.20;;;;;;;;;;6267432;22;20046;-59
2023/06/27 07:37:08;;;;;;;5.78;2.08;;;;;;;;;;6269039;22;20032;-60
2023/06/27 07:40:02;;;;;;;8.55;2.88;;;;;;;;;;6268923;22;20020;-59
2023/06/27 07:42:49;;;;;;;7.53;2.33;;;;;;;;;;6268573;22;20530;-59
2023/06/27 07:45:43;;;;;;;5.70;2.28;;;;;;;;;;6269848;22;20016;-60
2023/06/27 07:48:33;;;;;;;7.72;2.53;;;;;;;;;;6271024;22;20019;-59
2023/06/27 07:51:27;;;;;;;5.47;2.60;;;;;;;;;;6268825;22;20081;-60
2023/06/27 07:54:14;;;;;;;8.13;2.70;;;;;;;;;;6270233;22;20070;-59
2023/06/27 07:57:08;;;;;;;4.63;2.30;;;;;;;;;;6271112;22;20069;-59
2023/06/27 07:59:55;;;;;;;6.38;2.40;;;;;;;;;;6270758;22;20027;-60
2023/06/27 08:02:49;;;;;;;11.18;3.10;;;;;;;;;;6269327;22;20020;-59
2023/06/27 08:05:38;;;;;;;5.13;2.40;;;;;;;;;;6271004;22;20055;-60
2023/06/27 08:08:30;;;;;;;6.55;2.53;;;;;;;;;;6269881;22;20117;-59
2023/06/27 08:11:17;;;;;;;5.40;2.47;;;;;;;;;;6270814;22;20622;-59
2023/06/27 08:14:11;;;;;;;8.48;2.25;;;;;;;;;;6270668;22;20480;-59
2023/06/27 08:17:05;;;;;;;3.63;2.60;;;;;;;;;;6266751;22;20412;-59
2023/06/27 08:20:07;;;;;;;6.30;2.85;;;;;;;;;;6270728;22;20031;-58
2023/06/27 08:22:53;;;;;;;7.43;2.58;;;;;;;;;;6270952;22;20397;-59
2023/06/27 08:25:47;;;;;;;6.40;2.38;;;;;;;;;;6268950;22;20028;-58
2023/06/27 08:28:34;;;;;;;8.77;2.58;;;;;;;;;;6270635;22;20019;-58
2023/06/27 08:31:28;;;;;;;7.93;2.83;;;;;;;;;;6270327;22;20046;-56
2023/06/27 08:34:23;;;;;;;5.35;2.45;;;;;;;;;;6270114;22;20031;-58
2023/06/27 08:37:11;;;;;;;4.70;2.50;;;;;;;;;;6270871;22;20015;-58
2023/06/27 08:40:04;;;;;;;5.60;2.85;;;;;;;;;;6269433;22;20238;-59
2023/06/27 08:42:52;;;;;;;5.65;2.10;;;;;;;;;;6270173;22;20016;-57
2023/06/27 08:45:45;;;;;;;6.50;2.88;;;;;;;;;;6270676;22;20068;-58
2023/06/27 08:48:32;;;;;;;18.50;3.08;;;;;;;;;;6270247;22;20023;-59
2023/06/27 08:51:27;;;;;;;9.95;2.90;;;;;;;;;;6268724;22;20026;-58
2023/06/27 08:54:26;;;;;;;13.88;3.00;;;;;;;;;;6270180;22;20024;-56
2023/06/27 08:57:13;;;;;;;7.13;2.78;;;;;;;;;;6270802;22;20015;-58
2023/06/27 09:00:12;;;;;;;5.63;2.92;;;;;;;;;;6269579;22;20227;-53
2023/06/27 09:03:04;;;;;;;6.55;3.10;;;;;;;;;;6269945;22;20059;-58
2023/06/27 09:05:52;;;;;;;9.32;3.10;;;;;;;;;;6268718;22;20016;-55
2023/06/27 09:08:46;;;;;;;6.65;2.53;;;;;;;;;;6269307;22;20066;-56
2023/06/27 09:11:34;;;;;;;7.05;2.80;;;;;;;;;;6269793;22;20043;-58
2023/06/27 09:14:28;;;;;;;5.10;2.47;;;;;;;;;;6270533;22;20027;-57
2023/06/27 09:17:29;;;;;;;8.00;2.88;;;;;;;;;;6269258;22;20020;-55
2023/06/27 09:20:23;;;;;;;7.00;2.38;;;;;;;;;;6270554;22;20031;-58
2023/06/27 09:23:11;;;;;;;6.80;2.78;;;;;;;;;;6267290;22;20016;-54
2023/06/27 09:26:14;;;;;;;6.70;2.53;;;;;;;;;;6268614;22;20019;-57
2023/06/27 09:29:01;;;;;;;6.03;2.78;;;;;;;;;;6269316;22;20030;-57
2023/06/27 09:32:06;;;;;;;6.05;2.13;;;;;;;;;;6268663;22;20050;-54
2023/06/27 09:34:54;;;;;;;7.13;2.65;;;;;;;;;;6270667;22;20404;-57
2023/06/27 09:38:08;;;;;;;9.68;2.50;;;;;;;;;;6269715;22;20055;-55
2023/06/27 09:41:08;;;;;;;6.13;2.30;;;;;;;;;;6271371;22;20036;-56
2023/06/27 09:44:01;;;;;;;5.88;2.40;;;;;;;;;;6270298;22;20527;-57
2023/06/27 09:46:49;;;;;;;9.82;2.80;;;;;;;;;;6269599;22;20028;-55
2023/06/27 09:49:42;;;;;;;5.88;2.40;;;;;;;;;;6270187;22;20023;-57
2023/06/27 09:52:29;;;;;;;5.55;2.47;;;;;;;;;;6269891;22;20085;-56
2023/06/27 09:55:23;;;;;;;7.38;2.10;;;;;;;;;;6269516;22;20027;-59
2023/06/27 09:58:25;;;;;;;5.35;2.30;;;;;;;;;;6269294;22;20055;-57
2023/06/27 10:01:24;;;;;;;4.60;2.22;;;;;;;;;;6269396;22;20024;-56
2023/06/27 10:04:16;;;;;;;4.70;2.17;;;;;;;;;;6270043;22;20027;-55
2023/06/27 10:07:08;;;;;;;8.95;2.60;;;;;;;;;;6266879;22;20090;-57
2023/06/27 10:10:01;;;;;;;10.00;2.65;;;;;;;;;;6269224;22;20361;-55
2023/06/27 10:12:55;;;;;;;8.52;2.65;;;;;;;;;;6270945;22;20019;-57
2023/06/27 10:16:03;;;;;;;7.30;2.42;;;;;;;;;;6268118;22;20016;-55
2023/06/27 10:18:57;;;;;;;8.05;2.38;;;;;;;;;;6239816;22;20035;-57
2023/06/27 10:21:51;;;;;;;8.35;2.20;;;;;;;;;;6239356;22;20090;-55
2023/06/27 10:24:42;;;;;;;4.25;2.40;;;;;;;;;;6238399;23;20027;-57
2023/06/27 10:27:43;;;;;;;7.80;2.60;;;;;;;;;;6238231;22;20517;-56
2023/06/27 10:30:30;;;;;;;9.00;2.60;;;;;;;;;;6238632;23;20024;-57
2023/06/27 10:33:28;;;;;;;6.18;2.55;;;;;;;;;;6238505;22;20086;-55
2023/06/27 10:36:15;;;;;;;8.77;2.30;;;;;;;;;;6239292;23;20554;-55
2023/06/27 10:39:24;;;;;;;12.45;2.53;;;;;;;;;;6239013;22;20589;-57
2023/06/27 10:42:18;;;;;;;7.97;2.60;;;;;;;;;;6238187;22;20059;-54
2023/06/27 10:45:09;;;;;;;8.23;2.50;;;;;;;;;;6237664;22;20024;-57
2023/06/27 10:48:02;;;;;;;8.50;2.50;;;;;;;;;;6238597;22;20078;-57
2023/06/27 10:51:10;;;;;;;3.47;2.08;;;;;;;;;;6239033;23;20024;-57
2023/06/27 10:54:11;;;;;;;8.43;2.50;;;;;;;;;;6238464;22;20465;-57
2023/06/27 10:56:59;;;;;;;8.93;2.80;;;;;;;;;;6238309;23;20409;-58
2023/06/27 10:59:55;;;;;;;7.60;2.70;;;;;;;;;;6238017;22;20535;-57
2023/06/27 11:02:42;;;;;;;10.67;2.87;;;;;;;;;;6237579;23;20074;-57
2023/06/27 11:05:45;;;;;;;7.28;2.60;;;;;;;;;;6237723;22;20247;-58
2023/06/27 11:08:33;;;;;;;6.13;3.22;;;;;;;;;;6238119;23;20099;-56
2023/06/27 11:11:28;;;;;;;7.70;2.90;;;;;;;;;;6237810;22;20465;-56
2023/06/27 11:14:14;;;;;;;7.05;2.55;;;;;;;;;;6237276;23;20016;-57
2023/06/27 11:17:24;;;;;;;8.70;2.65;;;;;;;;;;6254589;22;20481;-58
2023/06/27 11:20:18;;;;;;;4.82;2.33;;;;;;;;;;6269541;22;20059;-57
2023/06/27 11:23:13;;;;;;;8.10;2.33;;;;;;;;;;6271341;22;20065;-56
2023/06/27 11:26:00;;;;;;;5.83;2.20;;;;;;;;;;6270667;22;20284;-57
2023/06/27 11:28:54;;;;;;;4.72;2.38;;;;;;;;;;6270860;22;20023;-56
2023/06/27 11:31:41;;;;;;;4.43;2.40;;;;;;;;;;6271479;22;20020;-57
2023/06/27 11:34:35;;;;;;;4.85;2.20;;;;;;;;;;6270063;22;20022;-58
2023/06/27 11:37:22;;;;;;;6.05;2.22;;;;;;;;;;6270499;22;20538;-58
2023/06/27 11:40:16;;;;;;;4.85;2.20;;;;;;;;;;6270906;22;20468;-58
2023/06/27 11:43:05;;;;;;;5.72;2.40;;;;;;;;;;6270511;22;20086;-58
2023/06/27 11:46:00;;;;;;;6.97;2.25;;;;;;;;;;6270680;22;20469;-57
2023/06/27 11:48:47;;;;;;;5.78;2.05;;;;;;;;;;6269990;22;20023;-54
2023/06/27 11:51:40;;;;;;;6.60;2.13;;;;;;;;;;6270296;22;20070;-57
2023/06/27 11:54:34;;;;;;;5.55;2.40;;;;;;;;;;6271501;22;20020;-58
2023/06/27 11:57:21;;;;;;;5.05;2.50;;;;;;;;;;6269258;22;20449;-58
2023/06/27 12:00:15;;;;;;;7.88;2.40;;;;;;;;;;6270203;22;20362;-58
2023/06/27 12:03:03;;;;;;;6.18;3.00;;;;;;;;;;6270856;22;20114;-57
2023/06/27 12:05:57;;;;;;;4.47;2.00;;;;;;;;;;6270581;22;20019;-57
2023/06/27 12:08:45;;;;;;;20.87;3.07;;;;;;;;;;6270524;22;20031;-59
2023/06/27 12:11:39;;;;;;;15.23;2.80;;;;;;;;;;6270221;22;20546;-60
2023/06/27 12:14:28;;;;;;;13.93;3.33;;;;;;;;;;6269836;22;20023;-60
2023/06/27 12:17:28;;;;;;;5.45;2.72;;;;;;;;;;6269362;22;20024;-60
2023/06/27 12:20:15;;;;;;;5.35;2.55;;;;;;;;;;6270375;22;20119;-60
2023/06/27 12:23:10;;;;;;;14.13;2.78;;;;;;;;;;6269567;22;20228;-60
2023/06/27 12:25:57;;;;;;;4.32;2.53;;;;;;;;;;6269301;22;20024;-60
2023/06/27 12:28:58;;;;;;;7.65;2.60;;;;;;;;;;6270886;22;20028;-57
2023/06/27 12:31:46;;;;;;;3.33;2.72;;;;;;;;;;6269590;22;20035;-58
2023/06/27 12:34:40;;;;;;;6.90;2.78;;;;;;;;;;6270149;22;20050;-58
2023/06/27 12:37:28;;;;;;;10.65;2.83;;;;;;;;;;6270187;22;20028;-59
2023/06/27 12:40:22;;;;;;;9.35;3.13;;;;;;;;;;6270042;22;20024;-59
2023/06/27 12:43:09;;;;;;;5.75;2.58;;;;;;;;;;6269816;22;20105;-58
2023/06/27 12:46:02;;;;;;;8.50;3.28;;;;;;;;;;6270482;22;20016;-59
2023/06/27 12:48:50;;;;;;;6.63;2.80;;;;;;;;;;6271039;22;20432;-59
2023/06/27 12:51:43;;;;;;;6.95;2.53;;;;;;;;;;6270872;22;20325;-59
2023/06/27 12:54:30;;;;;;;6.70;2.83;;;;;;;;;;6267723;22;20023;-59
2023/06/27 12:57:24;;;;;;;5.28;3.25;;;;;;;;;;6268175;22;20020;-59
2023/06/27 13:00:12;;;;;;;4.28;2.50;;;;;;;;;;6269133;22;20027;-59
2023/06/27 13:03:06;;;;;;;11.10;3.17;;;;;;;;;;6269642;22;20020;-59
2023/06/27 13:05:53;;;;;;;6.45;2.97;;;;;;;;;;6268865;22;20074;-60
2023/06/27 13:08:47;;;;;;;5.05;2.13;;;;;;;;;;6269794;22;20024;-60
2023/06/27 13:11:34;;;;;;;4.75;2.70;;;;;;;;;;6270666;22;20641;-60
2023/06/27 13:14:28;;;;;;;4.28;2.15;;;;;;;;;;6270665;22;20077;-59
2023/06/27 13:17:29;;;;;;;3.67;2.30;;;;;;;;;;6268793;22;20113;-60
2023/06/27 13:20:30;;;;;;;3.65;2.50;;;;;;;;;;6268326;22;20488;-59
2023/06/27 13:23:17;;;;;;;4.53;2.55;;;;;;;;;;6269060;22;20024;-59
2023/06/27 13:26:11;;;;;;;9.27;2.55;;;;;;;;;;6269906;22;20073;-59
2023/06/27 13:28:58;;;;;;;19.45;4.30;;;;;;;;;;6269496;22;20089;-60
2023/06/27 13:31:52;;;;;;;7.93;4.30;;;;;;;;;;6269532;22;20023;-60
2023/06/27 13:34:39;;;;;;;5.63;2.92;;;;;;;;;;6270726;22;20084;-59
2023/06/27 13:37:33;;;;;;;4.05;2.55;;;;;;;;;;6268970;22;20078;-60
2023/06/27 13:40:28;;;;;;;4.65;2.40;;;;;;;;;;6269945;22;20019;-57
2023/06/27 13:43:22;;;;;;;5.50;2.38;;;;;;;;;;6268589;22;20023;-60
2023/06/27 13:46:09;;;;;;;5.35;2.22;;;;;;;;;;6268802;22;20024;-59
2023/06/27 13:49:09;;;;;;;2.92;2.20;;;;;;;;;;6269584;22;20020;-59
2023/06/27 13:51:54;;;;;;;4.60;2.03;;;;;;;;;;6269058;22;20058;-59
2023/06/27 13:54:48;;;;;;;2.83;1.90;;;;;;;;;;6269127;22;20501;-59
2023/06/27 13:57:35;;;;;;;3.55;1.77;;;;;;;;;;6268628;22;20098;-58
2023/06/27 14:00:29;;;;;;;2.22;1.70;;;;;;;;;;6269746;22;20070;-59
2023/06/27 14:03:18;;;;;;;3.63;2.00;;;;;;;;;;6268752;22;20469;-59
2023/06/27 14:06:14;;;;;;;3.20;2.10;;;;;;;;;;6266570;22;20081;-58
2023/06/27 14:09:02;;;;;;;7.93;2.33;;;;;;;;;;6270242;22;20023;-59
2023/06/27 14:11:55;;;;;;;9.02;3.05;;;;;;;;;;6270524;22;20049;-58
2023/06/27 14:14:44;;;;;;;9.70;3.10;;;;;;;;;;6268109;22;20058;-59
2023/06/27 14:17:43;;;;;;;7.50;3.10;;;;;;;;;;6269475;22;20024;-59
2023/06/27 14:20:37;;;;;;;8.10;2.97;;;;;;;;;;6268957;22;20022;-59
2023/06/27 14:23:26;;;;;;;7.53;3.65;;;;;;;;;;6269825;22;20023;-58
2023/06/27 14:26:09;;;;;;;10.70;3.65;;;;;;;;;;6268085;22;20077;-58
2023/06/27 14:28:42;;;;;;;9.25;3.83;;;;;;;;;;6269168;22;20024;-59
2023/06/27 14:31:09;;;;;;;12.30;4.15;;;;;;;;;;6269063;22;20468;-59
2023/06/27 14:33:43;;;;;;;10.57;4.78;;;;;;;;;;6268695;22;20054;-59
2023/06/27 14:36:10;;;;;;;12.88;4.30;;;;;;;;;;6268876;22;20027;-58
2023/06/27 14:38:55;;;;;;;8.57;4.20;;;;;;;;;;6268669;22;20078;-59
2023/06/27 14:41:28;;;;;;;7.93;4.28;;;;;;;;;;6268923;22;20046;-59
2023/06/27 14:44:15;;;;;;;8.45;3.50;;;;;;;;;;6269144;22;20019;-59
2023/06/27 14:47:09;;;;;;;8.50;4.00;;;;;;;;;;6268215;22;20078;-59
2023/06/27 14:49:56;;;;;;;6.57;3.70;;;;;;;;;;6269385;22;20019;-59
2023/06/27 14:52:50;;;;;;;10.20;3.78;;;;;;;;;;6268763;22;20027;-59
2023/06/27 14:55:38;;;;;;;8.45;3.70;;;;;;;;;;6269061;22;20015;-59
2023/06/27 14:58:31;;;;;;;8.73;3.42;;;;;;;;;;6268372;22;20024;-59
2023/06/27 15:01:24;;;;;;;9.00;3.92;;;;;;;;;;6269517;22;20073;-59
2023/06/27 15:04:12;;;;;;;7.65;3.15;;;;;;;;;;6268329;22;20047;-59
2023/06/27 15:07:00;;;;;;;6.85;3.10;;;;;;;;;;6268343;22;20023;-59
2023/06/27 15:09:53;;;;;;;9.27;3.83;;;;;;;;;;6269708;22;20050;-59
2023/06/27 15:12:40;;;;;;;5.80;2.85;;;;;;;;;;6268792;22;20027;-59
2023/06/27 15:15:34;;;;;;;11.18;4.13;;;;;;;;;;6269243;22;20019;-59
2023/06/27 15:18:28;;;;;;;13.38;3.58;;;;;;;;;;6265197;22;20356;-58
2023/06/27 15:21:21;;;;;;;6.35;2.83;;;;;;;;;;6267780;22;20073;-59
2023/06/27 15:24:08;;;;;;;8.70;3.35;;;;;;;;;;6268530;22;20028;-59
2023/06/27 15:27:02;;;;;;;9.70;3.13;;;;;;;;;;6267767;22;20073;-59
2023/06/27 15:29:50;;;;;;;7.88;3.28;;;;;;;;;;6270388;22;20047;-59
2023/06/27 15:32:58;;;;;;;8.48;3.30;;;;;;;;;;6268936;22;20051;-59
2023/06/27 15:35:52;;;;;;;8.27;2.70;;;;;;;;;;6268436;22;20473;-59
2023/06/27 15:38:48;;;;;;;9.85;3.20;;;;;;;;;;6268144;22;20391;-59
2023/06/27 15:41:35;;;;;;;8.80;3.42;;;;;;;;;;6268562;22;20335;-58
2023/06/27 15:44:29;;;;;;;8.10;2.92;;;;;;;;;;6269813;22;20023;-59
2023/06/27 15:47:16;;;;;;;5.70;2.65;;;;;;;;;;6268373;22;20020;-58
2023/06/27 15:50:10;;;;;;;8.93;2.95;;;;;;;;;;6270038;22;20027;-59
2023/06/27 15:52:57;;;;;;;8.23;2.78;;;;;;;;;;6270514;22;20019;-59
2023/06/27 15:55:51;;;;;;;9.82;2.63;;;;;;;;;;6268892;22;20404;-58
2023/06/27 15:58:38;;;;;;;5.78;2.55;;;;;;;;;;6270357;22;20020;-59
2023/06/27 16:01:32;;;;;;;6.72;2.72;;;;;;;;;;6269323;22;20361;-61
2023/06/27 16:04:19;;;;;;;10.02;3.40;;;;;;;;;;6267206;22;20515;-61
2023/06/27 16:07:13;;;;;;;7.63;3.03;;;;;;;;;;6269145;22;20050;-61
2023/06/27 16:10:07;;;;;;;4.97;2.50;;;;;;;;;;6265567;22;20024;-61
2023/06/27 16:13:01;;;;;;;8.18;3.03;;;;;;;;;;6266953;22;20019;-61
2023/06/27 16:15:55;;;;;;;7.93;2.72;;;;;;;;;;6268889;22;20027;-61
2023/06/27 16:18:49;;;;;;;10.35;2.70;;;;;;;;;;6268864;22;20054;-61
2023/06/27 16:21:43;;;;;;;7.95;2.70;;;;;;;;;;6269038;22;20030;-60
2023/06/27 16:24:30;;;;;;;6.18;2.50;;;;;;;;;;6263742;22;20176;-60
2023/06/27 16:27:25;;;;;;;6.90;2.42;;;;;;;;;;6264713;22;20020;-61
2023/06/27 16:30:11;;;;;;;6.90;2.50;;;;;;;;;;6269603;22;20027;-60
2023/06/27 16:33:06;;;;;;;8.73;2.53;;;;;;;;;;6264873;22;20027;-61
2023/06/27 16:35:53;;;;;;;7.68;2.60;;;;;;;;;;6270200;22;20024;-61
2023/06/27 16:38:47;;;;;;;11.82;2.92;;;;;;;;;;6268486;22;20085;-61
2023/06/27 16:41:34;;;;;;;6.25;2.80;;;;;;;;;;6270943;22;20148;-60
2023/06/27 16:44:27;;;;;;;6.38;3.13;;;;;;;;;;6269443;22;20528;-61
2023/06/27 16:47:14;;;;;;;7.57;2.78;;;;;;;;;;6269356;22;20019;-60
2023/06/27 16:50:11;;;;;;;10.07;3.03;;;;;;;;;;6268826;22;20094;-60
2023/06/27 16:52:57;;;;;;;7.30;2.88;;;;;;;;;;6266387;22;20439;-61
2023/06/27 16:55:50;;;;;;;11.27;3.00;;;;;;;;;;6271267;22;20028;-60
2023/06/27 16:58:38;;;;;;;10.55;2.38;;;;;;;;;;6266406;22;20812;-61
2023/06/27 17:01:31;;;;;;;5.75;2.58;;;;;;;;;;6263697;22;20052;-60